createdAt,value
2018-12-11T00:00:36.023Z,98679.00
2018-12-11T00:03:04.543Z,98695.00
2018-12-11T00:05:33.032Z,98683.00
2018-12-11T00:08:01.524Z,98694.00
2018-12-11T00:10:30.001Z,98694.00
2018-12-11T00:12:58.498Z,98700.00
2018-12-11T00:15:26.985Z,98699.00
2018-12-11T00:17:55.475Z,98698.00
2018-12-11T00:20:23.958Z,98695.00
2018-12-11T00:22:52.536Z,98697.00
2018-12-11T00:25:21.026Z,98694.00
2018-12-11T00:27:49.519Z,98696.00
2018-12-11T00:30:18.095Z,98689.00
2018-12-11T00:32:46.780Z,98706.00
2018-12-11T00:35:15.256Z,98701.00
2018-12-11T00:37:43.847Z,98699.00
2018-12-11T00:40:12.424Z,98707.00
2018-12-11T00:42:40.905Z,98710.00
2018-12-11T00:45:09.394Z,98707.00
2018-12-11T00:47:37.871Z,98701.00
2018-12-11T00:50:06.755Z,98705.00
2018-12-11T00:52:35.247Z,98706.00
2018-12-11T00:55:03.831Z,98696.00
2018-12-11T00:57:32.403Z,98698.00
2018-12-11T01:00:00.880Z,98695.00
2018-12-11T01:02:29.359Z,98688.00
2018-12-11T01:04:57.849Z,98699.00
2018-12-11T01:07:26.354Z,98700.00
2018-12-11T01:09:55.144Z,98702.00
2018-12-11T01:12:23.710Z,98707.00
2018-12-11T01:14:52.178Z,98700.00
2018-12-11T01:17:20.663Z,98699.00
2018-12-11T01:19:49.136Z,98706.00
2018-12-11T01:22:17.620Z,98717.00
2018-12-11T01:24:46.107Z,98724.00
2018-12-11T01:27:14.792Z,98719.00
2018-12-11T01:29:43.288Z,98725.00
2018-12-11T01:32:11.777Z,98717.00
2018-12-11T01:34:40.074Z,98731.00
2018-12-11T01:37:08.353Z,98719.00
2018-12-11T01:39:36.628Z,98715.00
2018-12-11T01:42:05.513Z,98720.00
2018-12-11T01:44:33.789Z,98725.00
2018-12-11T01:47:02.070Z,98722.00
2018-12-11T01:49:30.342Z,98719.00
2018-12-11T01:51:58.774Z,98731.00
2018-12-11T01:54:27.407Z,98721.00
2018-12-11T01:56:55.741Z,98724.00
2018-12-11T01:59:24.025Z,98720.00
2018-12-11T02:01:52.314Z,98716.00
2018-12-11T02:04:31.048Z,98712.00
2018-12-11T02:06:59.822Z,98712.00
2018-12-11T02:09:28.372Z,98719.00
2018-12-11T02:11:56.850Z,98712.00
2018-12-11T02:14:25.320Z,98711.00
2018-12-11T02:16:53.797Z,98718.00
2018-12-11T02:19:22.314Z,98724.00
2018-12-11T02:21:50.874Z,98716.00
2018-12-11T02:24:19.395Z,98720.00
2018-12-11T02:26:47.951Z,98727.00
2018-12-11T02:29:16.569Z,98718.00
2018-12-11T02:31:45.071Z,98723.00
2018-12-11T02:34:13.597Z,98720.00
2018-12-11T02:36:42.090Z,98716.00
2018-12-11T02:39:10.667Z,98722.00
2018-12-11T02:41:39.247Z,98717.00
2018-12-11T02:44:07.819Z,98717.00
2018-12-11T02:46:36.303Z,98723.00
2018-12-11T02:49:04.782Z,98716.00
2018-12-11T02:51:33.405Z,98708.00
2018-12-11T02:54:01.965Z,98726.00
2018-12-11T02:56:30.462Z,98730.00
2018-12-11T02:58:58.955Z,98719.00
2018-12-11T03:01:27.522Z,98720.00
2018-12-11T03:03:56.043Z,98709.00
2018-12-11T03:06:24.516Z,98720.00
2018-12-11T03:08:53.078Z,98698.00
2018-12-11T03:11:21.701Z,98708.00
2018-12-11T03:13:50.233Z,98719.00
2018-12-11T03:16:18.818Z,98727.00
2018-12-11T03:18:47.941Z,98727.00
2018-12-11T03:21:16.882Z,98730.00
2018-12-11T03:23:45.383Z,98732.00
2018-12-11T03:26:13.899Z,98733.00
2018-12-11T03:28:42.455Z,98731.00
2018-12-11T03:31:11.452Z,98728.00
2018-12-11T03:33:40.049Z,98734.00
2018-12-11T03:36:08.611Z,98741.00
2018-12-11T03:38:37.104Z,98748.00
2018-12-11T03:41:05.589Z,98747.00
2018-12-11T03:43:34.194Z,98738.00
2018-12-11T03:46:02.759Z,98742.00
2018-12-11T03:48:31.380Z,98746.00
2018-12-11T03:50:59.859Z,98731.00
2018-12-11T03:53:28.350Z,98750.00
2018-12-11T03:55:56.871Z,98749.00
2018-12-11T03:58:25.375Z,98745.00
2018-12-11T04:00:53.844Z,98744.00
2018-12-11T04:03:22.328Z,98750.00
2018-12-11T04:05:50.814Z,98743.00
2018-12-11T04:08:19.468Z,98734.00
2018-12-11T04:10:48.087Z,98740.00
2018-12-11T04:13:16.577Z,98735.00
2018-12-11T04:15:45.084Z,98749.00
2018-12-11T04:18:13.599Z,98742.00
2018-12-11T04:20:42.158Z,98738.00
2018-12-11T04:23:10.923Z,98751.00
2018-12-11T04:25:39.499Z,98744.00
2018-12-11T04:28:07.979Z,98748.00
2018-12-11T04:30:36.462Z,98754.00
2018-12-11T04:33:05.154Z,98746.00
2018-12-11T04:35:33.725Z,98746.00
2018-12-11T04:38:02.330Z,98745.00
2018-12-11T04:40:30.903Z,98741.00
2018-12-11T04:42:59.383Z,98737.00
2018-12-11T04:45:27.864Z,98749.00
2018-12-11T04:47:56.335Z,98747.00
2018-12-11T04:50:24.866Z,98753.00
2018-12-11T04:52:53.452Z,98753.00
2018-12-11T04:55:22.328Z,98757.00
2018-12-11T04:57:51.529Z,98763.00
2018-12-11T05:00:20.720Z,98752.00
2018-12-11T05:02:49.917Z,98753.00
2018-12-11T05:05:19.181Z,98756.00
2018-12-11T05:07:48.239Z,98756.00
2018-12-11T05:10:17.474Z,98758.00
2018-12-11T05:12:46.671Z,98770.00
2018-12-11T05:15:15.752Z,98772.00
2018-12-11T05:17:44.813Z,98756.00
2018-12-11T05:20:14.010Z,98766.00
2018-12-11T05:22:43.096Z,98769.00
2018-12-11T05:25:12.365Z,98777.00
2018-12-11T05:27:40.867Z,98773.00
2018-12-11T05:30:09.457Z,98768.00
2018-12-11T05:32:38.061Z,98772.00
2018-12-11T05:35:06.629Z,98772.00
2018-12-11T05:37:35.183Z,98762.00
2018-12-11T05:40:03.883Z,98770.00
2018-12-11T05:42:33.231Z,98763.00
2018-12-11T05:45:02.577Z,98766.00
2018-12-11T05:47:31.668Z,98769.00
2018-12-11T05:50:00.838Z,98764.00
2018-12-11T05:52:40.193Z,98759.00
2018-12-11T05:55:09.450Z,98771.00
2018-12-11T05:57:38.640Z,98771.00
2018-12-11T06:00:09.162Z,98769.00
2018-12-11T06:02:38.153Z,98770.00
2018-12-11T06:05:08.340Z,98772.00
2018-12-11T06:07:37.528Z,98773.00
2018-12-11T06:10:08.235Z,98777.00
2018-12-11T06:12:36.740Z,98780.00
2018-12-11T06:15:05.284Z,98784.00
2018-12-11T06:17:33.760Z,98778.00
2018-12-11T06:20:02.455Z,98778.00
2018-12-11T06:22:30.941Z,98781.00
2018-12-11T06:24:59.438Z,98781.00
2018-12-11T06:27:28.177Z,98769.00
2018-12-11T06:29:56.774Z,98781.00
2018-12-11T06:32:25.403Z,98782.00
2018-12-11T06:34:53.907Z,98791.00
2018-12-11T06:37:22.462Z,98780.00
2018-12-11T06:39:50.946Z,98797.00
2018-12-11T06:42:19.444Z,98777.00
2018-12-11T06:44:47.983Z,98797.00
2018-12-11T06:47:16.471Z,98799.00
2018-12-11T06:49:45.242Z,98811.00
2018-12-11T06:52:13.724Z,98806.00
2018-12-11T06:54:42.331Z,98795.00
2018-12-11T06:57:11.106Z,98807.00
2018-12-11T06:59:39.593Z,98807.00
2018-12-11T07:02:08.234Z,98805.00
2018-12-11T07:04:36.754Z,98798.00
2018-12-11T07:07:05.327Z,98808.00
2018-12-11T07:09:33.855Z,98802.00
2018-12-11T07:12:02.621Z,98805.00
2018-12-11T07:14:31.177Z,98796.00
2018-12-11T07:16:59.872Z,98804.00
2018-12-11T07:19:28.516Z,98802.00
2018-12-11T07:21:57.224Z,98813.00
2018-12-11T07:24:25.881Z,98814.00
2018-12-11T07:26:54.377Z,98812.00
2018-12-11T07:29:23.012Z,98810.00
2018-12-11T07:31:51.512Z,98812.00
2018-12-11T07:34:19.764Z,98821.00
2018-12-11T07:36:48.013Z,98821.00
2018-12-11T07:39:16.273Z,98823.00
2018-12-11T07:41:44.564Z,98826.00
2018-12-11T07:44:12.814Z,98828.00
2018-12-11T07:46:41.075Z,98824.00
2018-12-11T07:49:09.344Z,98819.00
2018-12-11T07:51:37.636Z,98809.00
2018-12-11T07:54:05.893Z,98827.00
2018-12-11T07:56:34.141Z,98823.00
2018-12-11T07:59:02.394Z,98829.00
2018-12-11T08:01:30.627Z,98832.00
2018-12-11T08:03:58.906Z,98827.00
2018-12-11T08:06:27.249Z,98823.00
2018-12-11T08:08:55.526Z,98823.00
2018-12-11T08:11:24.048Z,98827.00
2018-12-11T08:13:52.300Z,98824.00
2018-12-11T08:16:20.828Z,98832.00
2018-12-11T08:18:49.353Z,98833.00
2018-12-11T08:21:17.601Z,98823.00
2018-12-11T08:23:45.849Z,98829.00
2018-12-11T08:26:14.102Z,98830.00
2018-12-11T08:28:42.385Z,98826.00
2018-12-11T08:31:10.709Z,98822.00
2018-12-11T08:33:39.044Z,98831.00
2018-12-11T08:36:07.277Z,98830.00
2018-12-11T08:38:35.524Z,98838.00
2018-12-11T08:41:03.788Z,98831.00
2018-12-11T08:43:32.036Z,98826.00
2018-12-11T08:46:00.284Z,98842.00
2018-12-11T08:48:28.538Z,98832.00
2018-12-11T08:50:56.800Z,98832.00
2018-12-11T08:53:25.081Z,98835.00
2018-12-11T08:55:53.365Z,98845.00
2018-12-11T08:58:21.629Z,98851.00
2018-12-11T09:00:49.979Z,98834.00
2018-12-11T09:03:18.255Z,98845.00
2018-12-11T09:05:46.512Z,98840.00
2018-12-11T09:08:14.785Z,98833.00
2018-12-11T09:10:43.077Z,98836.00
2018-12-11T09:13:11.328Z,98831.00
2018-12-11T09:15:39.581Z,98821.00
2018-12-11T09:18:07.834Z,98821.00
2018-12-11T09:20:36.115Z,98833.00
2018-12-11T09:23:04.490Z,98826.00
2018-12-11T09:25:32.775Z,98829.00
2018-12-11T09:28:01.051Z,98842.00
2018-12-11T09:30:29.339Z,98851.00
2018-12-11T09:32:57.613Z,98845.00
2018-12-11T09:35:25.884Z,98853.00
2018-12-11T09:37:54.140Z,98843.00
2018-12-11T09:40:24.599Z,98846.00
2018-12-11T09:42:52.659Z,98853.00
2018-12-11T09:45:20.915Z,98838.00
2018-12-11T09:47:49.172Z,98832.00
2018-12-11T09:50:17.535Z,98826.00
2018-12-11T09:52:45.824Z,98830.00
2018-12-11T09:55:14.185Z,98830.00
2018-12-11T09:57:42.491Z,98832.00
2018-12-11T10:00:10.756Z,98836.00
2018-12-11T10:02:39.018Z,98834.00
2018-12-11T10:05:07.288Z,98832.00
2018-12-11T10:07:35.549Z,98825.00
2018-12-11T10:10:03.820Z,98827.00
2018-12-11T10:12:32.101Z,98826.00
2018-12-11T10:15:00.346Z,98829.00
2018-12-11T10:17:28.686Z,98834.00
2018-12-11T10:19:56.976Z,98829.00
2018-12-11T10:22:25.345Z,98826.00
2018-12-11T10:24:53.659Z,98819.00
2018-12-11T10:27:21.985Z,98827.00
2018-12-11T10:29:50.257Z,98816.00
2018-12-11T10:32:18.545Z,98825.00
2018-12-11T10:34:46.821Z,98824.00
2018-12-11T10:37:15.105Z,98819.00
2018-12-11T10:39:43.398Z,98824.00
2018-12-11T10:42:11.709Z,98825.00
2018-12-11T10:44:39.998Z,98825.00
2018-12-11T10:47:08.287Z,98805.00
2018-12-11T10:49:36.588Z,98812.00
2018-12-11T10:52:04.865Z,98805.00
2018-12-11T10:54:33.132Z,98818.00
2018-12-11T10:57:01.414Z,98818.00
2018-12-11T10:59:29.696Z,98819.00
2018-12-11T11:02:02.186Z,98801.00
2018-12-11T11:04:30.534Z,98812.00
2018-12-11T11:06:58.791Z,98810.00
2018-12-11T11:09:27.050Z,98809.00
2018-12-11T11:11:55.397Z,98812.00
2018-12-11T11:14:25.172Z,98821.00
2018-12-11T11:16:53.596Z,98815.00
2018-12-11T11:19:21.848Z,98807.00
2018-12-11T11:21:50.101Z,98818.00
2018-12-11T11:24:18.361Z,98800.00
2018-12-11T11:26:46.634Z,98808.00
2018-12-11T11:29:14.889Z,98812.00
2018-12-11T11:31:43.174Z,98814.00
2018-12-11T11:34:11.467Z,98807.00
2018-12-11T11:36:39.702Z,98805.00
2018-12-11T11:39:08.731Z,98810.00
2018-12-11T11:41:37.010Z,98809.00
2018-12-11T11:44:05.297Z,98804.00
2018-12-11T11:46:33.694Z,98813.00
2018-12-11T11:49:01.953Z,98796.00
2018-12-11T11:51:30.217Z,98804.00
2018-12-11T11:53:58.472Z,98805.00
2018-12-11T11:56:26.728Z,98807.00
2018-12-11T11:58:54.978Z,98805.00
2018-12-11T12:01:23.301Z,98805.00
2018-12-11T12:03:51.591Z,98804.00
2018-12-11T12:06:19.829Z,98800.00
2018-12-11T12:08:48.085Z,98806.00
2018-12-11T12:11:16.329Z,98803.00
2018-12-11T12:13:44.614Z,98797.00
2018-12-11T12:16:12.886Z,98806.00
2018-12-11T12:18:41.150Z,98807.00
2018-12-11T12:21:09.408Z,98810.00
2018-12-11T12:23:37.767Z,98811.00
2018-12-11T12:26:06.053Z,98815.00
2018-12-11T12:28:34.314Z,98813.00
2018-12-11T12:31:02.971Z,98803.00
2018-12-11T12:33:31.285Z,98810.00
2018-12-11T12:35:59.553Z,98821.00
2018-12-11T12:38:27.818Z,98814.00
2018-12-11T12:40:56.079Z,98824.00
2018-12-11T12:43:24.351Z,98815.00
2018-12-11T12:45:52.654Z,98817.00
2018-12-11T12:48:21.052Z,98810.00
2018-12-11T12:50:49.339Z,98814.00
2018-12-11T12:53:17.607Z,98818.00
2018-12-11T12:55:45.893Z,98809.00
2018-12-11T12:58:14.264Z,98816.00
2018-12-11T13:00:42.567Z,98811.00
2018-12-11T13:03:10.856Z,98809.00
2018-12-11T13:05:39.126Z,98811.00
2018-12-11T13:08:07.375Z,98827.00
2018-12-11T13:10:35.754Z,98807.00
2018-12-11T13:13:04.098Z,98806.00
2018-12-11T13:15:32.381Z,98826.00
2018-12-11T13:18:00.850Z,98818.00
2018-12-11T13:20:29.102Z,98810.00
2018-12-11T13:22:57.376Z,98810.00
2018-12-11T13:25:32.377Z,98816.00
2018-12-11T13:28:00.629Z,98816.00
2018-12-11T13:30:28.893Z,98816.00
2018-12-11T13:32:57.247Z,98819.00
2018-12-11T13:35:25.509Z,98817.00
2018-12-11T13:37:54.703Z,98824.00
2018-12-11T13:40:23.197Z,98826.00
2018-12-11T13:42:51.650Z,98823.00
2018-12-11T13:45:20.009Z,98827.00
2018-12-11T13:47:48.555Z,98826.00
2018-12-11T13:50:17.120Z,98828.00
2018-12-11T13:52:45.516Z,98836.00
2018-12-11T13:55:13.958Z,98844.00
2018-12-11T13:57:42.433Z,98835.00
2018-12-11T14:00:11.056Z,98842.00
2018-12-11T14:02:39.408Z,98841.00
2018-12-11T14:05:07.775Z,98842.00
2018-12-11T14:07:36.154Z,98831.00
2018-12-11T14:10:05.051Z,98832.00
2018-12-11T14:12:33.465Z,98838.00
2018-12-11T14:15:01.839Z,98835.00
2018-12-11T14:17:38.811Z,98835.00
2018-12-11T14:20:07.550Z,98834.00
2018-12-11T14:22:38.551Z,98830.00
2018-12-11T14:25:06.974Z,98829.00
2018-12-11T14:27:35.449Z,98827.00
2018-12-11T14:30:10.751Z,98829.00
2018-12-11T14:32:34.627Z,98828.00
2018-12-11T14:35:02.987Z,98830.00
2018-12-11T14:37:31.355Z,98831.00
2018-12-11T14:39:59.774Z,98830.00
2018-12-11T14:42:28.198Z,98837.00
2018-12-11T14:44:56.621Z,98831.00
2018-12-11T14:47:25.106Z,98829.00
2018-12-11T14:49:54.483Z,98832.00
2018-12-11T14:52:22.902Z,98834.00
2018-12-11T14:54:51.392Z,98835.00
2018-12-11T14:57:19.736Z,98837.00
2018-12-11T14:59:48.065Z,98839.00
2018-12-11T15:02:16.474Z,98838.00
2018-12-11T15:04:44.897Z,98838.00
2018-12-11T15:07:13.364Z,98835.00
2018-12-11T15:09:47.055Z,98841.00
2018-12-11T15:12:15.499Z,98844.00
2018-12-11T15:14:43.889Z,98832.00
2018-12-11T15:17:12.307Z,98836.00
2018-12-11T15:19:40.643Z,98826.00
2018-12-11T15:22:09.039Z,98837.00
2018-12-11T15:24:38.526Z,98835.00
2018-12-11T15:27:06.900Z,98832.00
2018-12-11T15:29:35.245Z,98835.00
2018-12-11T15:32:03.786Z,98837.00
2018-12-11T15:34:32.130Z,98847.00
2018-12-11T15:37:00.592Z,98841.00
2018-12-11T15:39:28.923Z,98846.00
2018-12-11T15:41:57.283Z,98839.00
2018-12-11T15:44:27.806Z,98841.00
2018-12-11T15:46:56.392Z,98842.00
2018-12-11T15:49:24.783Z,98845.00
2018-12-11T15:51:53.164Z,98846.00
2018-12-11T15:54:21.594Z,98837.00
2018-12-11T15:56:52.396Z,98843.00
2018-12-11T15:59:20.775Z,98848.00
2018-12-11T16:01:49.122Z,98843.00
2018-12-11T16:04:17.577Z,98854.00
2018-12-11T16:06:45.920Z,98844.00
2018-12-11T16:09:14.288Z,98845.00
2018-12-11T16:11:43.798Z,98854.00
2018-12-11T16:14:12.170Z,98852.00
2018-12-11T16:16:40.541Z,98855.00
2018-12-11T16:19:08.871Z,98860.00
2018-12-11T16:21:37.347Z,98849.00
2018-12-11T16:24:05.759Z,98847.00
2018-12-11T16:26:34.209Z,98853.00
2018-12-11T19:39:54.279Z,98918.00
2018-12-11T19:42:22.817Z,98907.00
2018-12-11T19:44:51.319Z,98917.00
2018-12-11T19:47:19.796Z,98922.00
2018-12-11T19:49:48.285Z,98915.00
2018-12-11T19:52:16.760Z,98923.00
2018-12-11T19:54:45.364Z,98914.00
2018-12-11T19:57:13.866Z,98921.00
2018-12-11T19:59:42.478Z,98920.00
2018-12-11T20:02:10.946Z,98920.00
2018-12-11T20:04:39.422Z,98919.00
2018-12-11T20:07:07.912Z,98917.00
2018-12-11T20:09:38.402Z,98920.00
2018-12-11T20:12:06.880Z,98915.00
2018-12-11T20:14:35.351Z,98916.00
2018-12-11T20:17:03.823Z,98925.00
2018-12-11T20:19:32.320Z,98927.00
2018-12-11T20:22:00.776Z,98916.00
2018-12-11T20:24:29.342Z,98924.00
2018-12-11T20:26:57.916Z,98906.00
2018-12-11T20:29:26.489Z,98907.00
2018-12-11T20:31:55.177Z,98920.00
2018-12-11T20:34:23.646Z,98902.00
2018-12-11T20:36:52.375Z,98911.00
2018-12-11T20:39:20.818Z,98906.00
2018-12-11T20:41:49.413Z,98910.00
2018-12-11T20:44:17.884Z,98916.00
2018-12-11T20:46:46.345Z,98908.00
2018-12-11T20:49:14.799Z,98916.00
2018-12-11T20:51:43.472Z,98904.00
2018-12-11T20:54:11.927Z,98907.00
2018-12-11T20:56:40.396Z,98902.00
2018-12-11T20:59:08.860Z,98920.00
2018-12-11T21:01:37.357Z,98917.00
2018-12-11T21:04:05.842Z,98907.00
2018-12-11T21:06:34.332Z,98907.00
2018-12-11T21:09:03.835Z,98912.00
2018-12-11T21:11:32.515Z,98924.00
2018-12-11T21:14:00.952Z,98924.00
2018-12-11T21:16:29.481Z,98922.00
2018-12-11T21:18:58.287Z,98917.00
2018-12-11T21:21:27.209Z,98910.00
2018-12-11T21:23:56.224Z,98920.00
2018-12-11T21:26:24.688Z,98914.00
2018-12-11T21:28:53.153Z,98912.00
2018-12-11T21:31:21.643Z,98917.00
2018-12-11T21:33:50.109Z,98919.00
2018-12-11T21:36:18.582Z,98911.00
2018-12-11T21:38:47.050Z,98906.00
2018-12-11T21:41:15.587Z,98904.00
2018-12-11T21:43:44.060Z,98911.00
2018-12-11T21:46:12.528Z,98905.00
2018-12-11T21:48:41.004Z,98924.00
2018-12-11T21:51:09.481Z,98912.00
2018-12-11T21:53:37.945Z,98914.00
2018-12-11T21:56:06.413Z,98920.00
2018-12-11T21:58:34.886Z,98919.00
2018-12-11T22:01:03.358Z,98920.00
2018-12-11T22:03:32.138Z,98913.00
2018-12-11T22:06:00.931Z,98921.00
2018-12-11T22:08:29.407Z,98932.00
2018-12-11T22:10:57.877Z,98930.00
2018-12-11T22:13:26.358Z,98916.00
2018-12-11T22:15:54.821Z,98910.00
2018-12-11T22:18:23.309Z,98918.00
2018-12-11T22:20:51.766Z,98926.00
2018-12-11T22:23:20.462Z,98924.00
2018-12-11T22:25:49.045Z,98922.00
2018-12-11T22:28:17.519Z,98915.00
2018-12-11T22:30:46.002Z,98923.00
2018-12-11T22:33:14.464Z,98926.00
2018-12-11T22:35:42.928Z,98917.00
2018-12-11T22:38:11.396Z,98922.00
2018-12-11T22:40:39.876Z,98928.00
2018-12-11T22:43:08.337Z,98927.00
2018-12-11T22:45:36.808Z,98928.00
2018-12-11T22:48:05.279Z,98930.00
2018-12-11T22:50:33.736Z,98932.00
2018-12-11T22:53:02.224Z,98926.00
2018-12-11T22:55:30.703Z,98925.00
2018-12-11T22:57:59.156Z,98927.00
2018-12-11T23:00:27.624Z,98926.00
2018-12-11T23:02:56.092Z,98926.00
2018-12-11T23:05:24.560Z,98924.00
2018-12-11T23:07:53.041Z,98921.00
2018-12-11T23:10:21.507Z,98925.00
2018-12-11T23:12:49.974Z,98927.00
2018-12-11T23:15:18.462Z,98924.00
2018-12-11T23:17:47.043Z,98928.00
2018-12-11T23:20:15.519Z,98919.00
2018-12-11T23:22:43.996Z,98921.00
2018-12-11T23:25:12.776Z,98917.00
2018-12-11T23:27:41.236Z,98927.00
2018-12-11T23:30:09.695Z,98925.00
2018-12-11T23:32:38.177Z,98918.00
2018-12-11T23:35:07.117Z,98911.00
2018-12-11T23:37:35.590Z,98920.00
2018-12-11T23:40:04.520Z,98927.00
2018-12-11T23:42:32.988Z,98918.00
2018-12-11T23:45:01.455Z,98919.00
2018-12-11T23:47:29.919Z,98928.00
2018-12-11T23:49:58.488Z,98922.00
2018-12-11T23:52:27.146Z,98921.00
2018-12-11T23:54:55.621Z,98929.00
2018-12-11T23:57:24.106Z,98930.00
2018-12-11T23:59:52.576Z,98925.00
